Biron, Wisconsin
Current Conditions -  °F | °C
As of 7:54 PM on Monday 22 Dec 2014 (Local Time) from KISW Reporting Station
Light Snow Light Snow  
Wind Chill: 23°   Ceiling: 600
Heat Index: 33°   Visibility: 2mi
Dew Point: 30°   Wind: 14mph
Humidity: 89%   Direction: 80°E
Pressure: 29.69"   Gusts: NA
Location:  44.3431°N, 89.7334°W
Report Text: KISW 230154Z AUTO 08012KT 2SM -SN BR OVC006 01/M01 A2969 RMK AO2 CIG 005V009 SLP063 P0002 T00061011
Loading
Personal Weather Stations






























Interactive Weather Map New forecast layout! Learn more

10-Day Weather Forecast

Advertisements
Track Severe Weather on mobile